Terminal Aerodrome Forecast
Issued by NWS Charleston, SC

Home | Current Version | Previous Version | Text Only | Print | Product List | Glossary On
Versions: 1 2 3 4 5 6 7 8 9 10 11 12 13 14 15 16 17
000
FTUS42 KCHS 022337
TAFCHS
TAF
KCHS 022337Z 0300/0324 20007KT P6SM SCT040 BKN200
     FM030300 VRB03KT P6SM FEW040
     FM031400 35005KT P6SM SCT035
     FM031900 10007KT P6SM BKN050=

USA.gov is the U.S. government's official web portal to all federal, state and local government web resources and services.